sensor_id;sensor_type;location;lat;lon;timestamp;pressure;altitude;pressure_sealevel;temperature;humidity
25526;BME280;13424;48.424;11.258;2022-12-20T00:01:25;96277.53;;;2.70;78.73
25526;BME280;13424;48.424;11.258;2022-12-20T00:03:52;96264.06;;;2.65;78.49
25526;BME280;13424;48.424;11.258;2022-12-20T00:06:19;96264.50;;;2.68;78.21
25526;BME280;13424;48.424;11.258;2022-12-20T00:08:45;96266.63;;;2.73;78.58
25526;BME280;13424;48.424;11.258;2022-12-20T00:11:12;96266.47;;;2.74;78.66
25526;BME280;13424;48.424;11.258;2022-12-20T00:13:38;96259.81;;;2.87;78.62
25526;BME280;13424;48.424;11.258;2022-12-20T00:16:14;96260.88;;;2.77;79.02
25526;BME280;13424;48.424;11.258;2022-12-20T00:18:40;96260.03;;;3.00;78.68
25526;BME280;13424;48.424;11.258;2022-12-20T00:21:10;96255.53;;;3.08;78.33
25526;BME280;13424;48.424;11.258;2022-12-20T00:23:36;96244.38;;;2.98;78.62
25526;BME280;13424;48.424;11.258;2022-12-20T00:26:06;96247.75;;;2.38;81.04
25526;BME280;13424;48.424;11.258;2022-12-20T00:28:34;96248.13;;;2.58;80.47
25526;BME280;13424;48.424;11.258;2022-12-20T00:31:01;96246.16;;;2.21;82.17
25526;BME280;13424;48.424;11.258;2022-12-20T00:33:28;96243.72;;;2.19;82.21
25526;BME280;13424;48.424;11.258;2022-12-20T00:35:55;96235.09;;;2.34;81.87
25526;BME280;13424;48.424;11.258;2022-12-20T00:38:22;96235.91;;;2.34;81.83
25526;BME280;13424;48.424;11.258;2022-12-20T00:41:12;96227.75;;;2.21;82.23
25526;BME280;13424;48.424;11.258;2022-12-20T00:43:38;96225.66;;;2.47;81.58
25526;BME280;13424;48.424;11.258;2022-12-20T00:46:07;96225.19;;;2.90;80.57
25526;BME280;13424;48.424;11.258;2022-12-20T00:48:34;96230.56;;;2.73;80.49
25526;BME280;13424;48.424;11.258;2022-12-20T00:51:06;96230.47;;;2.90;80.36
25526;BME280;13424;48.424;11.258;2022-12-20T00:53:34;96243.31;;;2.93;79.73
25526;BME280;13424;48.424;11.258;2022-12-20T00:56:00;96242.28;;;2.71;80.63
25526;BME280;13424;48.424;11.258;2022-12-20T00:58:27;96237.97;;;2.78;80.40
25526;BME280;13424;48.424;11.258;2022-12-20T01:00:53;96237.94;;;2.55;81.56
25526;BME280;13424;48.424;11.258;2022-12-20T01:03:19;96237.03;;;2.94;80.03
25526;BME280;13424;48.424;11.258;2022-12-20T01:06:39;96249.72;;;3.13;80.36
25526;BME280;13424;48.424;11.258;2022-12-20T01:09:05;96249.78;;;3.05;80.53
25526;BME280;13424;48.424;11.258;2022-12-20T01:11:34;96246.00;;;3.22;79.99
25526;BME280;13424;48.424;11.258;2022-12-20T01:14:05;96253.06;;;3.07;80.22
25526;BME280;13424;48.424;11.258;2022-12-20T01:16:37;96248.25;;;3.11;80.19
25526;BME280;13424;48.424;11.258;2022-12-20T01:19:04;96250.91;;;2.88;80.50
25526;BME280;13424;48.424;11.258;2022-12-20T01:21:30;96250.09;;;2.87;80.79
25526;BME280;13424;48.424;11.258;2022-12-20T01:23:56;96246.75;;;2.93;80.54
25526;BME280;13424;48.424;11.258;2022-12-20T01:26:25;96238.84;;;2.93;80.44
25526;BME280;13424;48.424;11.258;2022-12-20T01:28:54;96233.56;;;3.31;79.81
25526;BME280;13424;48.424;11.258;2022-12-20T01:31:22;96240.81;;;3.52;79.13
25526;BME280;13424;48.424;11.258;2022-12-20T01:33:49;96228.34;;;3.60;78.83
25526;BME280;13424;48.424;11.258;2022-12-20T01:36:27;96232.63;;;3.61;78.64
25526;BME280;13424;48.424;11.258;2022-12-20T01:39:07;96231.53;;;3.56;78.31
25526;BME280;13424;48.424;11.258;2022-12-20T01:41:34;96233.56;;;3.31;78.45
25526;BME280;13424;48.424;11.258;2022-12-20T01:46:41;96234.53;;;2.92;77.89
25526;BME280;13424;48.424;11.258;2022-12-20T01:49:18;96235.72;;;2.90;78.30
25526;BME280;13424;48.424;11.258;2022-12-20T01:51:58;96234.59;;;2.84;79.33
25526;BME280;13424;48.424;11.258;2022-12-20T01:54:40;96231.44;;;3.12;79.53
25526;BME280;13424;48.424;11.258;2022-12-20T01:57:18;96230.06;;;2.78;79.98
25526;BME280;13424;48.424;11.258;2022-12-20T01:59:45;96230.81;;;3.10;79.71
25526;BME280;13424;48.424;11.258;2022-12-20T02:02:13;96225.75;;;3.00;79.87
25526;BME280;13424;48.424;11.258;2022-12-20T02:04:39;96215.16;;;3.08;79.35
25526;BME280;13424;48.424;11.258;2022-12-20T02:07:49;96225.66;;;3.16;78.83
25526;BME280;13424;48.424;11.258;2022-12-20T02:10:16;96232.09;;;2.91;79.66
25526;BME280;13424;48.424;11.258;2022-12-20T02:12:45;96217.59;;;2.72;80.40
25526;BME280;13424;48.424;11.258;2022-12-20T02:18:38;96228.63;;;2.90;78.73
25526;BME280;13424;48.424;11.258;2022-12-20T02:21:18;96224.00;;;2.92;79.16
25526;BME280;13424;48.424;11.258;2022-12-20T02:30:07;96214.59;;;2.75;79.45
25526;BME280;13424;48.424;11.258;2022-12-20T02:32:47;96212.78;;;2.75;78.77
25526;BME280;13424;48.424;11.258;2022-12-20T02:35:19;96208.56;;;2.66;78.52
25526;BME280;13424;48.424;11.258;2022-12-20T02:38:02;96214.00;;;2.42;79.34
25526;BME280;13424;48.424;11.258;2022-12-20T02:40:39;96210.63;;;2.56;79.39
25526;BME280;13424;48.424;11.258;2022-12-20T02:43:07;96209.44;;;2.82;78.87
25526;BME280;13424;48.424;11.258;2022-12-20T02:45:54;96209.19;;;2.91;78.57
25526;BME280;13424;48.424;11.258;2022-12-20T02:48:22;96208.09;;;3.08;77.99
25526;BME280;13424;48.424;11.258;2022-12-20T02:50:51;96207.28;;;3.23;77.83
25526;BME280;13424;48.424;11.258;2022-12-20T02:53:18;96201.22;;;3.37;77.58
25526;BME280;13424;48.424;11.258;2022-12-20T02:59:12;96188.78;;;2.70;79.88
25526;BME280;13424;48.424;11.258;2022-12-20T03:01:44;96191.94;;;2.89;79.60
25526;BME280;13424;48.424;11.258;2022-12-20T03:04:12;96179.81;;;2.57;79.83
25526;BME280;13424;48.424;11.258;2022-12-20T03:06:39;96183.91;;;2.82;79.49
25526;BME280;13424;48.424;11.258;2022-12-20T03:09:19;96184.59;;;2.76;79.64
25526;BME280;13424;48.424;11.258;2022-12-20T03:11:45;96177.00;;;2.81;79.69
25526;BME280;13424;48.424;11.258;2022-12-20T03:14:12;96176.13;;;2.66;80.00
25526;BME280;13424;48.424;11.258;2022-12-20T03:16:38;96176.13;;;2.66;79.95
25526;BME280;13424;48.424;11.258;2022-12-20T03:19:04;96173.91;;;2.55;80.61
25526;BME280;13424;48.424;11.258;2022-12-20T03:21:30;96169.94;;;2.59;81.03
25526;BME280;13424;48.424;11.258;2022-12-20T03:23:55;96162.56;;;2.54;80.99
25526;BME280;13424;48.424;11.258;2022-12-20T03:26:22;96157.38;;;2.15;80.99
25526;BME280;13424;48.424;11.258;2022-12-20T03:28:53;96162.28;;;2.18;81.93
25526;BME280;13424;48.424;11.258;2022-12-20T03:35:30;96186.66;;;2.43;80.81
25526;BME280;13424;48.424;11.258;2022-12-20T03:38:05;96190.16;;;2.35;80.30
25526;BME280;13424;48.424;11.258;2022-12-20T03:40:31;96185.84;;;2.65;79.22
25526;BME280;13424;48.424;11.258;2022-12-20T03:42:57;96183.75;;;2.38;80.18
25526;BME280;13424;48.424;11.258;2022-12-20T03:45:23;96167.34;;;2.50;80.47
25526;BME280;13424;48.424;11.258;2022-12-20T03:47:49;96185.44;;;2.54;80.45
25526;BME280;13424;48.424;11.258;2022-12-20T03:50:14;96175.31;;;2.88;80.08
25526;BME280;13424;48.424;11.258;2022-12-20T03:52:41;96176.75;;;2.68;80.62
25526;BME280;13424;48.424;11.258;2022-12-20T03:55:08;96183.63;;;3.15;79.13
25526;BME280;13424;48.424;11.258;2022-12-20T03:57:39;96175.66;;;2.85;79.87
25526;BME280;13424;48.424;11.258;2022-12-20T04:01:14;96175.97;;;3.05;79.47
25526;BME280;13424;48.424;11.258;2022-12-20T04:03:42;96181.97;;;2.76;80.37
25526;BME280;13424;48.424;11.258;2022-12-20T04:06:08;96175.56;;;2.56;81.27
25526;BME280;13424;48.424;11.258;2022-12-20T04:08:34;96169.66;;;2.54;81.34
25526;BME280;13424;48.424;11.258;2022-12-20T04:10:59;96166.41;;;2.43;82.06
25526;BME280;13424;48.424;11.258;2022-12-20T04:13:49;96162.97;;;2.66;81.06
25526;BME280;13424;48.424;11.258;2022-12-20T04:16:20;96163.44;;;2.69;80.67
25526;BME280;13424;48.424;11.258;2022-12-20T04:18:47;96162.31;;;2.64;81.16
25526;BME280;13424;48.424;11.258;2022-12-20T04:21:14;96169.50;;;2.93;80.40
25526;BME280;13424;48.424;11.258;2022-12-20T04:24:17;96162.31;;;2.64;80.94
25526;BME280;13424;48.424;11.258;2022-12-20T04:26:56;96161.81;;;2.83;80.38
25526;BME280;13424;48.424;11.258;2022-12-20T04:29:22;96164.78;;;2.42;81.85
25526;BME280;13424;48.424;11.258;2022-12-20T04:31:48;96145.94;;;2.54;81.51
25526;BME280;13424;48.424;11.258;2022-12-20T04:34:14;96139.50;;;2.56;81.52
25526;BME280;13424;48.424;11.258;2022-12-20T04:36:40;96140.56;;;2.24;82.76
25526;BME280;13424;48.424;11.258;2022-12-20T04:39:12;96132.97;;;2.29;82.48
25526;BME280;13424;48.424;11.258;2022-12-20T04:41:55;96127.91;;;2.42;82.31
25526;BME280;13424;48.424;11.258;2022-12-20T04:44:21;96131.53;;;2.18;83.29
25526;BME280;13424;48.424;11.258;2022-12-20T04:46:47;96118.59;;;2.09;83.43
25526;BME280;13424;48.424;11.258;2022-12-20T04:49:15;96113.03;;;2.04;83.32
25526;BME280;13424;48.424;11.258;2022-12-20T04:51:42;96099.69;;;2.05;84.22
25526;BME280;13424;48.424;11.258;2022-12-20T04:54:10;96094.59;;;2.04;84.08
25526;BME280;13424;48.424;11.258;2022-12-20T04:56:55;96104.38;;;1.95;84.67
25526;BME280;13424;48.424;11.258;2022-12-20T04:59:22;96109.63;;;1.95;85.05
25526;BME280;13424;48.424;11.258;2022-12-20T05:01:51;96102.56;;;1.64;85.48
25526;BME280;13424;48.424;11.258;2022-12-20T05:04:33;96110.81;;;1.92;84.62
25526;BME280;13424;48.424;11.258;2022-12-20T05:06:59;96112.41;;;1.71;85.03
25526;BME280;13424;48.424;11.258;2022-12-20T05:09:25;96105.44;;;1.47;85.93
25526;BME280;13424;48.424;11.258;2022-12-20T05:11:53;96105.59;;;1.84;84.82
25526;BME280;13424;48.424;11.258;2022-12-20T05:15:10;96110.28;;;2.20;82.92
25526;BME280;13424;48.424;11.258;2022-12-20T05:17:36;96103.28;;;2.35;82.00
25526;BME280;13424;48.424;11.258;2022-12-20T05:20:04;96093.63;;;2.28;81.95
25526;BME280;13424;48.424;11.258;2022-12-20T05:22:31;96091.16;;;2.26;81.13
25526;BME280;13424;48.424;11.258;2022-12-20T05:25:38;96077.25;;;2.17;82.36
25526;BME280;13424;48.424;11.258;2022-12-20T05:28:22;96088.47;;;2.34;82.22
25526;BME280;13424;48.424;11.258;2022-12-20T05:30:49;96104.03;;;2.21;81.46
25526;BME280;13424;48.424;11.258;2022-12-20T05:33:15;96101.75;;;2.18;81.35
25526;BME280;13424;48.424;11.258;2022-12-20T05:35:42;96093.81;;;2.26;81.15
25526;BME280;13424;48.424;11.258;2022-12-20T05:38:11;96095.69;;;2.40;80.52
25526;BME280;13424;48.424;11.258;2022-12-20T05:40:38;96093.81;;;2.26;81.10
25526;BME280;13424;48.424;11.258;2022-12-20T05:43:05;96105.28;;;2.33;80.27
25526;BME280;13424;48.424;11.258;2022-12-20T05:45:39;96087.22;;;2.30;80.46
25526;BME280;13424;48.424;11.258;2022-12-20T05:48:11;96086.56;;;2.66;79.46
25526;BME280;13424;48.424;11.258;2022-12-20T05:50:40;96096.00;;;3.27;77.84
25526;BME280;13424;48.424;11.258;2022-12-20T05:53:23;96080.38;;;2.59;81.04
25526;BME280;13424;48.424;11.258;2022-12-20T05:55:54;96090.88;;;2.82;81.12
25526;BME280;13424;48.424;11.258;2022-12-20T05:58:24;96094.63;;;2.87;81.68
25526;BME280;13424;48.424;11.258;2022-12-20T06:01:05;96091.09;;;3.10;80.78
25526;BME280;13424;48.424;11.258;2022-12-20T06:03:37;96094.47;;;3.33;80.71
25526;BME280;13424;48.424;11.258;2022-12-20T06:06:06;96083.94;;;3.33;80.48
25526;BME280;13424;48.424;11.258;2022-12-20T06:08:32;96083.53;;;3.66;79.54
25526;BME280;13424;48.424;11.258;2022-12-20T06:11:01;96076.88;;;4.06;78.17
25526;BME280;13424;48.424;11.258;2022-12-20T06:13:37;96084.66;;;3.92;78.89
25526;BME280;13424;48.424;11.258;2022-12-20T06:16:04;96089.63;;;4.02;78.62
25526;BME280;13424;48.424;11.258;2022-12-20T06:18:30;96078.94;;;3.89;79.30
25526;BME280;13424;48.424;11.258;2022-12-20T06:20:59;96091.63;;;3.64;80.67
25526;BME280;13424;48.424;11.258;2022-12-20T06:23:26;96089.72;;;3.73;80.58
25526;BME280;13424;48.424;11.258;2022-12-20T06:26:06;96088.44;;;4.05;79.21
25526;BME280;13424;48.424;11.258;2022-12-20T06:28:35;96081.53;;;3.53;80.44
25526;BME280;13424;48.424;11.258;2022-12-20T06:31:09;96072.00;;;3.37;82.27
25526;BME280;13424;48.424;11.258;2022-12-20T06:33:43;96072.19;;;3.35;82.07
25526;BME280;13424;48.424;11.258;2022-12-20T06:36:12;96074.63;;;3.37;81.07
25526;BME280;13424;48.424;11.258;2022-12-20T06:38:38;96071.28;;;3.28;80.71
25526;BME280;13424;48.424;11.258;2022-12-20T06:41:10;96062.22;;;2.64;82.88
25526;BME280;13424;48.424;11.258;2022-12-20T06:43:37;96072.47;;;3.26;81.14
25526;BME280;13424;48.424;11.258;2022-12-20T06:46:03;96074.28;;;3.25;81.23
25526;BME280;13424;48.424;11.258;2022-12-20T06:48:29;96078.00;;;3.31;81.12
25526;BME280;13424;48.424;11.258;2022-12-20T06:50:55;96072.00;;;3.22;81.60
25526;BME280;13424;48.424;11.258;2022-12-20T06:53:21;96071.75;;;3.02;83.43
25526;BME280;13424;48.424;11.258;2022-12-20T06:55:47;96059.63;;;3.08;82.96
25526;BME280;13424;48.424;11.258;2022-12-20T06:58:16;96070.84;;;3.25;82.40
25526;BME280;13424;48.424;11.258;2022-12-20T07:00:46;96070.28;;;3.29;82.31
25526;BME280;13424;48.424;11.258;2022-12-20T07:03:12;96067.19;;;3.26;81.67
25526;BME280;13424;48.424;11.258;2022-12-20T07:05:38;96066.81;;;3.14;80.80
25526;BME280;13424;48.424;11.258;2022-12-20T07:12:32;96057.31;;;2.23;82.11
25526;BME280;13424;48.424;11.258;2022-12-20T07:14:58;96048.78;;;1.98;83.80
25526;BME280;13424;48.424;11.258;2022-12-20T07:17:24;96056.25;;;2.32;83.36
25526;BME280;13424;48.424;11.258;2022-12-20T07:19:50;96068.28;;;2.87;82.64
25526;BME280;13424;48.424;11.258;2022-12-20T07:22:16;96056.22;;;2.55;84.05
25526;BME280;13424;48.424;11.258;2022-12-20T07:24:42;96061.72;;;2.98;82.73
25526;BME280;13424;48.424;11.258;2022-12-20T07:27:09;96052.72;;;2.92;82.32
25526;BME280;13424;48.424;11.258;2022-12-20T07:29:35;96061.38;;;2.86;81.47
25526;BME280;13424;48.424;11.258;2022-12-20T07:32:05;96064.38;;;3.42;79.45
25526;BME280;13424;48.424;11.258;2022-12-20T07:34:31;96056.28;;;3.29;80.52
25526;BME280;13424;48.424;11.258;2022-12-20T07:36:57;96059.91;;;3.57;79.04
25526;BME280;13424;48.424;11.258;2022-12-20T07:39:23;96063.19;;;3.00;80.46
25526;BME280;13424;48.424;11.258;2022-12-20T07:41:53;96063.53;;;2.97;83.41
25526;BME280;13424;48.424;11.258;2022-12-20T07:44:21;96073.09;;;2.98;82.84
25526;BME280;13424;48.424;11.258;2022-12-20T07:46:47;96081.72;;;3.07;82.43
25526;BME280;13424;48.424;11.258;2022-12-20T07:49:16;96079.81;;;3.16;81.86
25526;BME280;13424;48.424;11.258;2022-12-20T07:51:48;96086.66;;;3.25;80.24
25526;BME280;13424;48.424;11.258;2022-12-20T07:54:22;96078.84;;;3.17;79.90
25526;BME280;13424;48.424;11.258;2022-12-20T07:56:53;96080.72;;;3.23;80.22
25526;BME280;13424;48.424;11.258;2022-12-20T07:59:24;96077.81;;;3.47;79.06
25526;BME280;13424;48.424;11.258;2022-12-20T08:01:51;96092.28;;;3.51;79.94
25526;BME280;13424;48.424;11.258;2022-12-20T08:04:20;96083.47;;;3.29;81.31
25526;BME280;13424;48.424;11.258;2022-12-20T08:06:47;96090.28;;;2.94;82.43
25526;BME280;13424;48.424;11.258;2022-12-20T08:09:15;96096.47;;;3.01;83.57
25526;BME280;13424;48.424;11.258;2022-12-20T08:11:44;96087.72;;;3.16;83.36
25526;BME280;13424;48.424;11.258;2022-12-20T08:14:11;96083.28;;;3.16;83.41
25526;BME280;13424;48.424;11.258;2022-12-20T08:16:37;96089.75;;;3.28;83.77
25526;BME280;13424;48.424;11.258;2022-12-20T08:19:03;96085.47;;;3.42;82.59
25526;BME280;13424;48.424;11.258;2022-12-20T08:21:29;96076.00;;;3.48;81.15
25526;BME280;13424;48.424;11.258;2022-12-20T08:23:55;96065.59;;;3.61;81.16
25526;BME280;13424;48.424;11.258;2022-12-20T08:26:22;96064.19;;;3.44;82.49
25526;BME280;13424;48.424;11.258;2022-12-20T08:28:47;96071.41;;;3.71;82.28
25526;BME280;13424;48.424;11.258;2022-12-20T08:31:13;96059.88;;;3.72;82.34
25526;BME280;13424;48.424;11.258;2022-12-20T08:33:40;96071.13;;;3.81;82.08
25526;BME280;13424;48.424;11.258;2022-12-20T08:36:10;96076.41;;;3.81;81.86
25526;BME280;13424;48.424;11.258;2022-12-20T08:38:36;96080.91;;;3.87;80.75
25526;BME280;13424;48.424;11.258;2022-12-20T08:41:12;96070.44;;;3.93;80.46
25526;BME280;13424;48.424;11.258;2022-12-20T08:43:39;96079.41;;;4.14;79.68
25526;BME280;13424;48.424;11.258;2022-12-20T08:46:09;96086.69;;;4.33;78.46
25526;BME280;13424;48.424;11.258;2022-12-20T08:48:35;96084.50;;;4.58;78.16
25526;BME280;13424;48.424;11.258;2022-12-20T08:51:04;96079.78;;;4.82;76.38
25526;BME280;13424;48.424;11.258;2022-12-20T08:53:31;96072.59;;;4.26;78.38
25526;BME280;13424;48.424;11.258;2022-12-20T08:56:13;96063.38;;;4.15;78.97
25526;BME280;13424;48.424;11.258;2022-12-20T08:58:41;96057.38;;;4.07;79.28
25526;BME280;13424;48.424;11.258;2022-12-20T09:01:12;96051.41;;;3.98;80.00
25526;BME280;13424;48.424;11.258;2022-12-20T09:03:38;96046.72;;;3.79;80.67
25526;BME280;13424;48.424;11.258;2022-12-20T09:06:07;96041.94;;;3.17;83.34
25526;BME280;13424;48.424;11.258;2022-12-20T09:08:35;96044.09;;;3.28;83.09
25526;BME280;13424;48.424;11.258;2022-12-20T09:11:18;96042.22;;;3.73;82.08
25526;BME280;13424;48.424;11.258;2022-12-20T09:13:46;96036.44;;;3.84;81.99
25526;BME280;13424;48.424;11.258;2022-12-20T09:16:15;96045.94;;;4.00;80.99
25526;BME280;13424;48.424;11.258;2022-12-20T09:18:41;96038.97;;;4.13;80.42
25526;BME280;13424;48.424;11.258;2022-12-20T09:21:07;96031.53;;;4.45;78.84
25526;BME280;13424;48.424;11.258;2022-12-20T09:23:34;96028.16;;;4.51;78.16
25526;BME280;13424;48.424;11.258;2022-12-20T09:26:03;96028.03;;;4.38;78.62
25526;BME280;13424;48.424;11.258;2022-12-20T09:28:30;96034.66;;;4.55;77.85
25526;BME280;13424;48.424;11.258;2022-12-20T09:31:01;96033.50;;;4.36;77.70
25526;BME280;13424;48.424;11.258;2022-12-20T09:33:28;96038.22;;;4.19;79.08
25526;BME280;13424;48.424;11.258;2022-12-20T09:35:55;96040.63;;;4.14;79.06
25526;BME280;13424;48.424;11.258;2022-12-20T09:38:22;96027.34;;;4.08;79.14
25526;BME280;13424;48.424;11.258;2022-12-20T09:40:51;96036.56;;;4.61;77.94
25526;BME280;13424;48.424;11.258;2022-12-20T09:43:18;96050.03;;;4.73;77.15
25526;BME280;13424;48.424;11.258;2022-12-20T09:45:47;96052.75;;;4.80;76.98
25526;BME280;13424;48.424;11.258;2022-12-20T09:48:30;96055.53;;;4.99;76.18
25526;BME280;13424;48.424;11.258;2022-12-20T09:59:40;96045.53;;;5.71;73.23
25526;BME280;13424;48.424;11.258;2022-12-20T10:02:10;96030.03;;;5.61;74.19
25526;BME280;13424;48.424;11.258;2022-12-20T10:04:37;96030.81;;;5.55;74.58
25526;BME280;13424;48.424;11.258;2022-12-20T10:07:38;96027.38;;;5.61;74.36
25526;BME280;13424;48.424;11.258;2022-12-20T10:10:30;96022.63;;;5.98;73.31
25526;BME280;13424;48.424;11.258;2022-12-20T10:13:45;96018.25;;;5.83;73.62
25526;BME280;13424;48.424;11.258;2022-12-20T10:16:46;96025.16;;;5.71;73.79
25526;BME280;13424;48.424;11.258;2022-12-20T10:22:24;96013.13;;;5.69;73.76
25526;BME280;13424;48.424;11.258;2022-12-20T10:25:19;95997.88;;;5.16;75.41
25526;BME280;13424;48.424;11.258;2022-12-20T10:27:46;95985.38;;;5.03;75.72
25526;BME280;13424;48.424;11.258;2022-12-20T10:30:22;95981.63;;;4.57;78.06
25526;BME280;13424;48.424;11.258;2022-12-20T10:32:52;95983.06;;;4.87;78.15
25526;BME280;13424;48.424;11.258;2022-12-20T10:35:28;95976.78;;;4.95;77.89
25526;BME280;13424;48.424;11.258;2022-12-20T10:38:05;95976.19;;;4.93;78.14
25526;BME280;13424;48.424;11.258;2022-12-20T10:40:46;95978.94;;;5.19;77.28
25526;BME280;13424;48.424;11.258;2022-12-20T10:46:55;95982.72;;;5.45;76.71
25526;BME280;13424;48.424;11.258;2022-12-20T10:49:37;95977.28;;;5.66;76.32
25526;BME280;13424;48.424;11.258;2022-12-20T10:54:38;95952.06;;;5.70;75.62
25526;BME280;13424;48.424;11.258;2022-12-20T10:57:21;95953.44;;;5.59;75.52
25526;BME280;13424;48.424;11.258;2022-12-20T10:59:59;95956.56;;;5.70;75.39
25526;BME280;13424;48.424;11.258;2022-12-20T11:02:31;95963.13;;;6.00;74.57
25526;BME280;13424;48.424;11.258;2022-12-20T11:07:38;95945.75;;;5.84;74.87
25526;BME280;13424;48.424;11.258;2022-12-20T11:10:20;95933.28;;;5.52;76.73
25526;BME280;13424;48.424;11.258;2022-12-20T11:13:01;95916.72;;;5.23;77.69
25526;BME280;13424;48.424;11.258;2022-12-20T11:15:33;95918.78;;;5.35;76.78
25526;BME280;13424;48.424;11.258;2022-12-20T11:18:16;95927.44;;;5.70;76.26
25526;BME280;13424;48.424;11.258;2022-12-20T11:21:07;95917.50;;;5.92;75.33
25526;BME280;13424;48.424;11.258;2022-12-20T11:24:04;95914.63;;;5.86;75.13
25526;BME280;13424;48.424;11.258;2022-12-20T11:26:49;95915.59;;;5.59;76.37
25526;BME280;13424;48.424;11.258;2022-12-20T11:36:02;95889.72;;;5.48;76.07
25526;BME280;13424;48.424;11.258;2022-12-20T11:42:04;95880.72;;;5.36;77.43
25526;BME280;13424;48.424;11.258;2022-12-20T11:50:51;95855.91;;;5.23;77.59
25526;BME280;13424;48.424;11.258;2022-12-20T11:53:36;95847.88;;;4.97;79.11
25526;BME280;13424;48.424;11.258;2022-12-20T11:56:33;95850.16;;;5.13;78.74
25526;BME280;13424;48.424;11.258;2022-12-20T12:00:05;95848.47;;;4.92;79.35
25526;BME280;13424;48.424;11.258;2022-12-20T12:02:17;95834.78;;;4.75;80.55
25526;BME280;13424;48.424;11.258;2022-12-20T12:05:02;95849.81;;;5.43;77.82
25526;BME280;13424;48.424;11.258;2022-12-20T12:07:31;95843.94;;;5.67;76.79
25526;BME280;13424;48.424;11.258;2022-12-20T12:10:16;95836.78;;;5.35;78.21
25526;BME280;13424;48.424;11.258;2022-12-20T12:12:46;95838.25;;;5.70;76.90
25526;BME280;13424;48.424;11.258;2022-12-20T12:15:49;95839.69;;;5.79;76.71
25526;BME280;13424;48.424;11.258;2022-12-20T12:18:19;95836.44;;;5.77;76.59
25526;BME280;13424;48.424;11.258;2022-12-20T12:21:27;95851.09;;;6.00;75.90
25526;BME280;13424;48.424;11.258;2022-12-20T12:26:51;95845.16;;;5.58;76.84
25526;BME280;13424;48.424;11.258;2022-12-20T12:29:18;95837.19;;;5.31;78.65
25526;BME280;13424;48.424;11.258;2022-12-20T12:32:05;95829.91;;;5.47;77.67
25526;BME280;13424;48.424;11.258;2022-12-20T12:34:56;95832.34;;;5.81;77.37
25526;BME280;13424;48.424;11.258;2022-12-20T12:42:04;95806.69;;;5.55;78.22
25526;BME280;13424;48.424;11.258;2022-12-20T12:45:13;95819.75;;;5.70;78.87
25526;BME280;13424;48.424;11.258;2022-12-20T12:47:58;95829.31;;;5.78;77.83
25526;BME280;13424;48.424;11.258;2022-12-20T12:50:32;95835.63;;;5.97;77.84
25526;BME280;13424;48.424;11.258;2022-12-20T12:53:20;95831.56;;;5.61;78.16
25526;BME280;13424;48.424;11.258;2022-12-20T12:55:49;95829.69;;;5.75;77.91
25526;BME280;13424;48.424;11.258;2022-12-20T13:00:52;95825.47;;;5.94;77.33
25526;BME280;13424;48.424;11.258;2022-12-20T13:11:32;95823.38;;;5.82;78.09
25526;BME280;13424;48.424;11.258;2022-12-20T13:16:45;95820.13;;;6.13;76.93
25526;BME280;13424;48.424;11.258;2022-12-20T13:19:16;95818.50;;;6.19;76.84
25526;BME280;13424;48.424;11.258;2022-12-20T13:21:47;95807.44;;;5.03;80.39
25526;BME280;13424;48.424;11.258;2022-12-20T13:24:56;95824.59;;;5.60;78.76
25526;BME280;13424;48.424;11.258;2022-12-20T13:27:36;95811.97;;;5.49;78.76
25526;BME280;13424;48.424;11.258;2022-12-20T13:40:42;95806.28;;;5.65;78.86
25526;BME280;13424;48.424;11.258;2022-12-20T13:45:50;95802.63;;;5.40;79.08
25526;BME280;13424;48.424;11.258;2022-12-20T13:48:24;95800.28;;;4.97;81.02
25526;BME280;13424;48.424;11.258;2022-12-20T13:50:54;95804.22;;;5.14;80.93
25526;BME280;13424;48.424;11.258;2022-12-20T13:53:24;95805.84;;;5.35;80.75
25526;BME280;13424;48.424;11.258;2022-12-20T13:55:52;95807.91;;;5.53;79.54
25526;BME280;13424;48.424;11.258;2022-12-20T13:58:23;95807.53;;;6.09;77.11
25526;BME280;13424;48.424;11.258;2022-12-20T14:00:50;95808.69;;;6.33;76.82
25526;BME280;13424;48.424;11.258;2022-12-20T14:03:24;95801.59;;;5.60;78.21
25526;BME280;13424;48.424;11.258;2022-12-20T14:08:25;95789.13;;;4.47;83.01
25526;BME280;13424;48.424;11.258;2022-12-20T14:10:52;95787.03;;;4.77;82.45
25526;BME280;13424;48.424;11.258;2022-12-20T14:13:24;95765.13;;;4.90;81.86
25526;BME280;13424;48.424;11.258;2022-12-20T14:15:51;95765.47;;;4.80;82.74
25526;BME280;13424;48.424;11.258;2022-12-20T14:20:43;95768.38;;;5.05;81.39
25526;BME280;13424;48.424;11.258;2022-12-20T14:23:19;95755.53;;;4.75;83.41
25526;BME280;13424;48.424;11.258;2022-12-20T14:25:54;95748.00;;;4.86;83.08
25526;BME280;13424;48.424;11.258;2022-12-20T14:30:57;95744.16;;;4.88;82.87
25526;BME280;13424;48.424;11.258;2022-12-20T14:33:36;95746.00;;;4.94;82.49
25526;BME280;13424;48.424;11.258;2022-12-20T14:36:21;95751.31;;;5.14;81.40
25526;BME280;13424;48.424;11.258;2022-12-20T14:38:49;95759.03;;;5.09;81.27
25526;BME280;13424;48.424;11.258;2022-12-20T14:46:31;95787.97;;;5.44;79.39
25526;BME280;13424;48.424;11.258;2022-12-20T14:49:32;95779.81;;;5.52;79.49
25526;BME280;13424;48.424;11.258;2022-12-20T14:52:20;95780.22;;;5.36;80.33
25526;BME280;13424;48.424;11.258;2022-12-20T14:55:04;95776.56;;;5.23;80.04
25526;BME280;13424;48.424;11.258;2022-12-20T15:05:44;95774.53;;;5.52;78.69
25526;BME280;13424;48.424;11.258;2022-12-20T15:08:31;95768.38;;;4.92;81.71
25526;BME280;13424;48.424;11.258;2022-12-20T15:13:43;95752.53;;;5.18;80.75
25526;BME280;13424;48.424;11.258;2022-12-20T15:16:20;95761.09;;;5.14;80.89
25526;BME280;13424;48.424;11.258;2022-12-20T15:18:54;95745.22;;;5.07;81.18
25526;BME280;13424;48.424;11.258;2022-12-20T15:21:34;95737.34;;;4.46;83.18
25526;BME280;13424;48.424;11.258;2022-12-20T15:24:05;95742.69;;;4.11;84.79
25526;BME280;13424;48.424;11.258;2022-12-20T15:26:37;95734.75;;;4.11;85.73
25526;BME280;13424;48.424;11.258;2022-12-20T15:29:04;95738.91;;;4.34;85.22